createdAt,value
2019-05-15T00:00:28.816Z,48.77
2019-05-15T00:05:34.642Z,49.03
2019-05-15T00:10:41.487Z,49.56
2019-05-15T00:15:48.449Z,49.56
2019-05-15T00:20:55.453Z,49.61
2019-05-15T00:26:02.502Z,50.11
2019-05-15T00:31:09.565Z,50.11
2019-05-15T00:36:19.011Z,50.84
2019-05-15T00:41:24.298Z,50.84
2019-05-15T00:46:31.398Z,50.99
2019-05-15T00:51:39.058Z,51.02
2019-05-15T00:56:48.373Z,51.46
2019-05-15T01:01:55.422Z,51.76
2019-05-15T01:07:01.272Z,52.56
2019-05-15T01:12:09.418Z,52.63
2019-05-15T01:17:15.302Z,53.09
2019-05-15T01:22:22.441Z,53.55
2019-05-15T01:27:29.142Z,53.47
2019-05-15T01:32:36.426Z,53.98
2019-05-15T01:37:42.265Z,54.10
2019-05-15T01:42:50.025Z,54.30
2019-05-15T01:47:58.490Z,54.70
2019-05-15T01:53:05.039Z,55.10
2019-05-15T01:58:12.389Z,55.49
2019-05-15T02:03:18.634Z,55.66
2019-05-15T02:08:25.435Z,55.77
2019-05-15T02:13:32.440Z,56.16
2019-05-15T02:18:39.463Z,56.40
2019-05-15T02:23:48.151Z,56.61
2019-05-15T02:28:56.410Z,56.80
2019-05-15T02:34:03.408Z,57.11
2019-05-15T02:39:10.567Z,57.22
2019-05-15T02:44:19.956Z,57.56
2019-05-15T02:49:30.439Z,57.58
2019-05-15T02:54:40.019Z,57.67
2019-05-15T02:59:49.817Z,58.13
2019-05-15T03:04:59.538Z,58.32
2019-05-15T03:10:09.183Z,58.48
2019-05-15T03:15:15.459Z,58.46
2019-05-15T03:20:22.577Z,58.82
2019-05-15T03:25:30.743Z,58.42
2019-05-15T03:31:06.856Z,58.60
2019-05-15T03:35:46.436Z,58.32
2019-05-15T03:40:52.284Z,58.32
2019-05-15T03:46:01.528Z,58.23
2019-05-15T03:51:09.272Z,58.11
2019-05-15T03:56:15.330Z,58.09
2019-05-15T04:01:33.961Z,57.91
2019-05-15T04:06:30.315Z,57.73
2019-05-15T04:11:38.759Z,57.50
2019-05-15T04:16:49.387Z,57.41
2019-05-15T04:21:54.289Z,57.39
2019-05-15T04:27:07.149Z,57.11
2019-05-15T04:32:13.687Z,57.11
2019-05-15T04:37:20.448Z,56.96
2019-05-15T04:42:29.961Z,56.96
2019-05-15T04:47:39.589Z,56.63
2019-05-15T04:52:45.451Z,56.37
2019-05-15T04:57:52.434Z,55.90
2019-05-15T05:03:00.062Z,55.61
2019-05-15T05:08:09.306Z,54.91
2019-05-15T05:13:19.420Z,54.24
2019-05-15T05:18:25.427Z,53.48
2019-05-15T05:23:32.440Z,53.08
2019-05-15T05:28:39.447Z,52.48
2019-05-15T05:33:48.759Z,51.96
2019-05-15T05:38:55.674Z,51.73
2019-05-15T05:44:03.531Z,51.22
2019-05-15T05:49:10.489Z,50.77
2019-05-15T05:54:18.165Z,50.77
2019-05-15T05:59:28.392Z,50.49
2019-05-15T06:04:38.436Z,50.29
2019-05-15T06:09:48.519Z,49.96
2019-05-15T06:14:58.055Z,49.23
2019-05-15T06:20:07.948Z,49.23
2019-05-15T06:25:19.520Z,48.26
2019-05-15T06:30:30.693Z,47.17
2019-05-15T06:35:39.445Z,46.77
2019-05-15T06:40:48.523Z,46.18
2019-05-15T06:45:55.218Z,45.48
2019-05-15T06:51:02.442Z,44.85
2019-05-15T06:56:09.271Z,43.57
2019-05-15T07:01:18.900Z,44.03
2019-05-15T07:06:24.334Z,44.04
2019-05-15T07:11:31.411Z,42.41
2019-05-15T07:16:38.969Z,41.20
2019-05-15T07:21:45.693Z,41.14
2019-05-15T07:26:52.953Z,37.18
2019-05-15T07:31:58.710Z,37.18
2019-05-15T07:37:05.532Z,35.58
2019-05-15T07:42:12.451Z,35.58
2019-05-15T07:47:19.277Z,35.40
2019-05-15T07:52:28.635Z,35.53
2019-05-15T07:57:35.423Z,35.53
2019-05-15T08:02:42.449Z,35.38
2019-05-15T08:07:49.450Z,34.27
2019-05-15T08:12:58.124Z,33.03
2019-05-15T08:18:09.888Z,32.58
2019-05-15T08:23:14.826Z,31.44
2019-05-15T08:28:21.658Z,31.54
2019-05-15T08:33:29.574Z,31.87
2019-05-15T08:38:38.373Z,31.89
2019-05-15T08:43:45.434Z,31.89
2019-05-15T08:48:52.450Z,31.03
2019-05-15T08:53:59.456Z,30.92
2019-05-15T08:59:08.701Z,30.64
2019-05-15T09:04:30.181Z,29.64
2019-05-15T09:09:25.529Z,30.04
2019-05-15T09:14:32.588Z,29.57
2019-05-15T09:19:39.454Z,30.24
2019-05-15T09:24:48.658Z,30.24
2019-05-15T09:29:55.456Z,30.37
2019-05-15T09:35:02.454Z,30.77
2019-05-15T09:40:12.529Z,30.51
2019-05-15T09:45:21.573Z,30.79
2019-05-15T09:50:28.452Z,30.55
2019-05-15T09:55:37.999Z,30.55
2019-05-15T10:00:44.429Z,30.81
2019-05-15T10:05:51.922Z,30.47
2019-05-15T10:10:59.524Z,29.81
2019-05-15T10:16:08.356Z,29.45
2019-05-15T10:21:18.609Z,29.43
2019-05-15T10:26:28.552Z,29.43
2019-05-15T10:31:35.637Z,29.19
2019-05-15T10:36:43.675Z,29.71
2019-05-15T10:41:51.920Z,29.28
2019-05-15T10:47:01.277Z,29.28
2019-05-15T10:52:11.171Z,29.24
2019-05-15T10:57:18.889Z,29.34
2019-05-15T11:02:28.847Z,29.65
2019-05-15T11:07:39.376Z,29.49
2019-05-15T11:12:47.303Z,29.78
2019-05-15T11:17:58.432Z,29.48
2019-05-15T11:23:08.279Z,28.83
2019-05-15T11:28:15.564Z,29.63
2019-05-15T11:33:22.481Z,29.76
2019-05-15T11:38:29.530Z,29.76
2019-05-15T11:43:38.495Z,30.15
2019-05-15T11:48:45.446Z,30.15
2019-05-15T11:53:52.461Z,30.04
2019-05-15T11:58:59.438Z,30.11
2019-05-15T12:04:09.038Z,30.56
2019-05-15T12:09:15.441Z,29.67
2019-05-15T12:14:22.525Z,29.35
2019-05-15T12:19:29.551Z,29.94
2019-05-15T12:24:40.244Z,29.78
2019-05-15T12:29:49.291Z,30.33
2019-05-15T12:35:00.036Z,30.33
2019-05-15T13:00:43.074Z,33.70
2019-05-15T13:05:50.416Z,36.43
2019-05-15T13:10:57.580Z,38.70
2019-05-15T13:16:04.598Z,42.57
2019-05-15T13:21:11.451Z,46.12
2019-05-15T13:26:26.154Z,46.12
2019-05-15T13:32:19.579Z,47.46
2019-05-15T13:37:30.852Z,49.37
2019-05-15T13:42:39.051Z,49.10
2019-05-15T13:47:46.408Z,49.51
2019-05-15T13:52:53.440Z,49.65
2019-05-15T13:58:00.453Z,48.70
2019-05-15T14:03:09.119Z,47.76
2019-05-15T14:08:18.054Z,46.19
2019-05-15T14:13:28.400Z,44.88
2019-05-15T14:18:34.574Z,42.67
2019-05-15T15:28:08.054Z,40.74
2019-05-15T15:33:14.423Z,40.74
2019-05-15T15:38:36.539Z,41.33
2019-05-15T15:43:30.442Z,41.67
2019-05-15T15:52:48.785Z,42.21
2019-05-15T15:57:55.444Z,42.17
2019-05-15T16:03:02.458Z,41.84
2019-05-15T16:08:09.429Z,41.84
2019-05-15T16:13:18.719Z,42.54
2019-05-15T16:18:25.437Z,42.56
2019-05-15T16:23:32.444Z,42.62
2019-05-15T16:28:39.493Z,42.73
2019-05-15T16:33:48.060Z,42.81
2019-05-15T16:39:05.058Z,42.99
2019-05-15T16:44:04.434Z,43.02
2019-05-15T16:49:11.453Z,43.21
2019-05-15T16:54:18.435Z,43.66
2019-05-15T16:59:25.452Z,44.07
2019-05-15T17:04:32.450Z,44.69
2019-05-15T17:09:39.469Z,45.19
2019-05-15T17:14:48.611Z,45.86
2019-05-15T17:19:57.585Z,45.80
2019-05-15T17:25:04.468Z,45.80
2019-05-15T17:30:12.103Z,46.89
2019-05-15T17:35:19.565Z,52.67
2019-05-15T17:40:28.381Z,52.67
2019-05-15T17:45:34.314Z,54.72
2019-05-15T17:50:48.636Z,56.14
2019-05-15T17:55:50.433Z,56.50
2019-05-15T18:00:59.518Z,56.73
2019-05-15T18:06:07.073Z,56.81
2019-05-15T18:11:14.429Z,56.75
2019-05-15T18:16:22.447Z,56.61
2019-05-15T18:21:30.562Z,56.64
2019-05-15T18:26:38.732Z,56.45
2019-05-15T18:31:48.008Z,56.23
2019-05-15T18:36:57.741Z,56.28
2019-05-15T18:42:04.440Z,56.28
2019-05-15T18:52:08.798Z,56.17
2019-05-15T18:57:16.071Z,56.01
2019-05-15T19:02:23.482Z,56.00
2019-05-15T19:07:30.644Z,56.09
2019-05-15T19:12:37.998Z,55.95
2019-05-15T19:17:47.372Z,55.95
2019-05-15T19:22:54.433Z,55.77
2019-05-15T19:28:01.466Z,55.52
2019-05-15T19:33:08.449Z,55.34
2019-05-15T19:38:15.457Z,54.91
2019-05-15T19:43:22.473Z,54.91
2019-05-15T19:48:29.458Z,54.77
2019-05-15T19:53:36.462Z,54.35
2019-05-15T20:01:35.621Z,54.42
2019-05-15T20:06:42.509Z,54.06
2019-05-15T20:11:49.609Z,54.06
2019-05-15T20:16:58.790Z,53.68
2019-05-15T20:22:07.879Z,53.68
2019-05-15T20:27:14.457Z,53.71
2019-05-15T20:33:28.420Z,53.85
2019-05-15T20:38:35.438Z,50.67
2019-05-15T20:43:42.475Z,52.60
2019-05-15T20:48:49.454Z,52.84
2019-05-15T20:53:59.501Z,52.85
2019-05-15T20:59:08.707Z,52.95
2019-05-15T21:04:22.540Z,52.53
2019-05-15T21:09:24.452Z,52.54
2019-05-15T21:14:31.468Z,52.41
2019-05-15T21:19:38.657Z,52.43
2019-05-15T21:24:45.648Z,52.19
2019-05-15T21:29:52.586Z,52.14
2019-05-15T21:34:59.666Z,52.14
2019-05-15T21:40:08.445Z,51.66
2019-05-15T21:45:17.792Z,51.66
2019-05-15T21:50:24.591Z,51.62
2019-05-15T21:55:31.578Z,51.37
2019-05-15T22:00:43.577Z,51.30
2019-05-15T22:05:50.598Z,51.28
2019-05-15T22:10:57.699Z,51.28
2019-05-15T22:16:04.787Z,51.06
2019-05-15T22:21:11.593Z,51.06
2019-05-15T22:30:54.579Z,51.67
2019-05-15T22:36:01.454Z,51.70
2019-05-15T22:41:10.593Z,52.05
2019-05-15T22:46:43.392Z,52.05
2019-05-15T22:51:50.473Z,53.28
2019-05-15T22:57:02.314Z,54.73
2019-05-15T23:02:09.692Z,56.71
2019-05-15T23:07:18.574Z,59.53
2019-05-15T23:12:28.610Z,59.53
2019-05-15T23:17:35.699Z,60.94
2019-05-15T23:22:43.267Z,61.59
2019-05-15T23:27:51.675Z,62.39
2019-05-15T23:32:59.297Z,62.99
2019-05-15T23:38:08.467Z,62.99
2019-05-15T23:43:18.981Z,63.66
2019-05-15T23:48:28.430Z,63.66
2019-05-15T23:53:35.464Z,63.82
2019-05-15T23:58:42.474Z,64.18
